Vremea mâine în Aninoasa - Romania

Vrei sa afli care e starea vremii acum in Dambovita - Romania? Dorim sa iti furnizam starea vremii pentru Dambovita - Romania. Starea vremii Dambovita - Romania pentru astazi.

Vremea mâine în Aninoasa

Temperatura minimă:
9.6 °C

Temperatura maximă:
23.1 °C

Mâine va fi: Patchy rain nearby
Precipitații: 88 %
Umiditate: 70%
Viteza maximă vânt mâine:
13.3 km/h

Evoluția vremii in Aninoasa pe ore mâine

Ora: 03:00
Temperatura: °C
Sansa de precipitatii: %
Ora Descriere Temp Se simte Precipitatii Umiditate Vant
00:00Patchy rain nearby11.4°11.6°75%85%N 4 KM/H
01:00Senin11°11.5°0%85%N 3.2 KM/H
02:00Senin10.7°10.5°0%86%NNW 5 KM/H
03:00Senin10.4°10.2°0%87%NNW 5 KM/H
04:00Senin10.1°10.1°0%87%NNW 4.3 KM/H
05:00Senin9.9°10°0%88%N 4 KM/H
06:00Senin9.6°9.5°0%88%NNW 4.3 KM/H
07:00Senin10.6°10.7°0%86%N 4.3 KM/H
08:00Senin13.7°13.7°0%79%NE 1.4 KM/H
09:00Senin15.7°15.7°0%73%S 2.9 KM/H
10:00Senin17.6°17.6°0%67%SSW 5 KM/H
11:00Senin19.4°19.4°0%60%SSW 7.2 KM/H
12:00Senin20.8°20.8°0%54%SSW 9.4 KM/H
13:00Patchy rain nearby21.9°21.9°75%50%SSW 11.2 KM/H
14:00Patchy rain nearby22.7°24.5°100%47%SSW 12.2 KM/H
15:00Thundery outbreaks in nearby23.1°24.6°88%45%SSW 13.3 KM/H
16:00Thundery outbreaks in nearby22.7°24.5°88%47%SSW 11.9 KM/H
17:00Patchy rain nearby22.1°24.4°82%49%SSW 10.8 KM/H
18:00Patchy rain nearby21.8°21.8°81%52%SSW 10.1 KM/H
19:00Patchy rain nearby20.7°20.7°100%59%SSW 9 KM/H
20:00Senin17.2°17.2°0%65%SW 6.1 KM/H
21:00Senin15.3°15.3°0%67%W 0.7 KM/H
22:00Patchy rain nearby13.8°13.5°86%77%ENE 7.9 KM/H
23:00Patchy rain nearby12.5°11.7°68%89%ENE 9.4 KM/H




tutorials